sensor_id;sensor_type;location;lat;lon;timestamp;P1;durP1;ratioP1;P2;durP2;ratioP2
9508;SDS011;4792;50.088;8.122;2023-04-25T00:00:23;7.37;;;5.97;;
9508;SDS011;4792;50.088;8.122;2023-04-25T00:02:53;7.63;;;6.20;;
9508;SDS011;4792;50.088;8.122;2023-04-25T00:05:23;6.53;;;5.80;;
9508;SDS011;4792;50.088;8.122;2023-04-25T00:07:51;7.57;;;5.77;;
9508;SDS011;4792;50.088;8.122;2023-04-25T00:10:19;7.33;;;6.10;;
9508;SDS011;4792;50.088;8.122;2023-04-25T00:12:47;7.60;;;5.90;;
9508;SDS011;4792;50.088;8.122;2023-04-25T00:15:15;9.27;;;6.40;;
9508;SDS011;4792;50.088;8.122;2023-04-25T00:17:44;11.27;;;7.77;;
9508;SDS011;4792;50.088;8.122;2023-04-25T00:20:13;10.37;;;7.43;;
9508;SDS011;4792;50.088;8.122;2023-04-25T00:22:41;10.10;;;6.67;;
9508;SDS011;4792;50.088;8.122;2023-04-25T00:25:09;7.97;;;6.57;;
9508;SDS011;4792;50.088;8.122;2023-04-25T00:27:37;6.67;;;5.97;;
9508;SDS011;4792;50.088;8.122;2023-04-25T00:30:05;12.83;;;7.10;;
9508;SDS011;4792;50.088;8.122;2023-04-25T00:32:34;10.83;;;8.20;;
9508;SDS011;4792;50.088;8.122;2023-04-25T00:35:02;10.47;;;7.63;;
9508;SDS011;4792;50.088;8.122;2023-04-25T00:37:31;10.47;;;7.23;;
9508;SDS011;4792;50.088;8.122;2023-04-25T00:39:59;10.20;;;7.00;;
9508;SDS011;4792;50.088;8.122;2023-04-25T00:42:26;11.00;;;7.23;;
9508;SDS011;4792;50.088;8.122;2023-04-25T00:44:55;8.40;;;6.60;;
9508;SDS011;4792;50.088;8.122;2023-04-25T00:47:23;13.43;;;9.23;;
9508;SDS011;4792;50.088;8.122;2023-04-25T00:49:51;10.50;;;7.93;;
9508;SDS011;4792;50.088;8.122;2023-04-25T00:52:19;12.07;;;7.50;;
9508;SDS011;4792;50.088;8.122;2023-04-25T00:54:48;12.20;;;7.17;;
9508;SDS011;4792;50.088;8.122;2023-04-25T00:57:16;13.70;;;9.03;;
9508;SDS011;4792;50.088;8.122;2023-04-25T00:59:45;14.23;;;10.23;;
9508;SDS011;4792;50.088;8.122;2023-04-25T01:02:13;14.97;;;9.43;;
9508;SDS011;4792;50.088;8.122;2023-04-25T01:04:41;13.20;;;9.00;;
9508;SDS011;4792;50.088;8.122;2023-04-25T01:07:09;10.80;;;7.93;;
9508;SDS011;4792;50.088;8.122;2023-04-25T01:09:37;9.60;;;7.63;;
9508;SDS011;4792;50.088;8.122;2023-04-25T01:12:06;8.80;;;7.90;;
9508;SDS011;4792;50.088;8.122;2023-04-25T01:14:34;11.90;;;9.13;;
9508;SDS011;4792;50.088;8.122;2023-04-25T01:17:02;9.57;;;8.07;;
9508;SDS011;4792;50.088;8.122;2023-04-25T01:19:30;12.77;;;8.57;;
9508;SDS011;4792;50.088;8.122;2023-04-25T01:21:59;12.70;;;8.30;;
9508;SDS011;4792;50.088;8.122;2023-04-25T01:24:27;15.87;;;10.23;;
9508;SDS011;4792;50.088;8.122;2023-04-25T01:26:55;11.57;;;8.40;;
9508;SDS011;4792;50.088;8.122;2023-04-25T01:29:23;10.83;;;7.87;;
9508;SDS011;4792;50.088;8.122;2023-04-25T01:31:51;11.00;;;8.83;;
9508;SDS011;4792;50.088;8.122;2023-04-25T01:34:19;12.97;;;9.50;;
9508;SDS011;4792;50.088;8.122;2023-04-25T01:36:48;12.20;;;9.63;;
9508;SDS011;4792;50.088;8.122;2023-04-25T01:39:18;13.23;;;9.93;;
9508;SDS011;4792;50.088;8.122;2023-04-25T01:41:46;12.27;;;10.47;;
9508;SDS011;4792;50.088;8.122;2023-04-25T01:44:14;12.57;;;9.77;;
9508;SDS011;4792;50.088;8.122;2023-04-25T01:46:42;13.73;;;9.93;;
9508;SDS011;4792;50.088;8.122;2023-04-25T01:49:10;21.83;;;11.03;;
9508;SDS011;4792;50.088;8.122;2023-04-25T01:51:38;16.60;;;10.57;;
9508;SDS011;4792;50.088;8.122;2023-04-25T01:54:06;13.53;;;9.67;;
9508;SDS011;4792;50.088;8.122;2023-04-25T01:56:37;17.13;;;11.37;;
9508;SDS011;4792;50.088;8.122;2023-04-25T01:59:05;18.37;;;11.53;;
9508;SDS011;4792;50.088;8.122;2023-04-25T02:01:33;18.37;;;11.97;;
9508;SDS011;4792;50.088;8.122;2023-04-25T02:04:01;21.03;;;12.53;;
9508;SDS011;4792;50.088;8.122;2023-04-25T02:06:29;22.37;;;12.03;;
9508;SDS011;4792;50.088;8.122;2023-04-25T02:08:58;15.57;;;11.73;;
9508;SDS011;4792;50.088;8.122;2023-04-25T02:11:26;18.90;;;11.97;;
9508;SDS011;4792;50.088;8.122;2023-04-25T02:13:55;18.00;;;12.13;;
9508;SDS011;4792;50.088;8.122;2023-04-25T02:16:23;17.30;;;12.27;;
9508;SDS011;4792;50.088;8.122;2023-04-25T02:18:51;16.13;;;11.53;;
9508;SDS011;4792;50.088;8.122;2023-04-25T02:21:20;18.17;;;11.77;;
9508;SDS011;4792;50.088;8.122;2023-04-25T02:23:48;17.30;;;10.93;;
9508;SDS011;4792;50.088;8.122;2023-04-25T02:26:18;16.17;;;11.93;;
9508;SDS011;4792;50.088;8.122;2023-04-25T02:28:47;17.93;;;11.30;;
9508;SDS011;4792;50.088;8.122;2023-04-25T02:31:17;19.60;;;11.80;;
9508;SDS011;4792;50.088;8.122;2023-04-25T02:33:44;15.27;;;11.20;;
9508;SDS011;4792;50.088;8.122;2023-04-25T02:36:14;17.23;;;11.40;;
9508;SDS011;4792;50.088;8.122;2023-04-25T02:38:42;18.53;;;13.03;;
9508;SDS011;4792;50.088;8.122;2023-04-25T02:41:10;16.77;;;11.53;;
9508;SDS011;4792;50.088;8.122;2023-04-25T02:43:37;16.93;;;11.40;;
9508;SDS011;4792;50.088;8.122;2023-04-25T02:46:05;15.33;;;11.90;;
9508;SDS011;4792;50.088;8.122;2023-04-25T02:48:34;15.87;;;11.57;;
9508;SDS011;4792;50.088;8.122;2023-04-25T02:51:02;14.47;;;9.73;;
9508;SDS011;4792;50.088;8.122;2023-04-25T02:53:30;19.97;;;10.97;;
9508;SDS011;4792;50.088;8.122;2023-04-25T02:55:58;18.57;;;11.40;;
9508;SDS011;4792;50.088;8.122;2023-04-25T02:58:26;16.20;;;10.80;;
9508;SDS011;4792;50.088;8.122;2023-04-25T03:00:53;14.97;;;10.37;;
9508;SDS011;4792;50.088;8.122;2023-04-25T03:03:21;18.83;;;11.90;;
9508;SDS011;4792;50.088;8.122;2023-04-25T03:05:51;19.03;;;12.97;;
9508;SDS011;4792;50.088;8.122;2023-04-25T03:08:19;19.17;;;13.17;;
9508;SDS011;4792;50.088;8.122;2023-04-25T03:10:47;16.27;;;12.23;;
9508;SDS011;4792;50.088;8.122;2023-04-25T03:13:16;16.77;;;11.43;;
9508;SDS011;4792;50.088;8.122;2023-04-25T03:15:44;21.70;;;13.13;;
9508;SDS011;4792;50.088;8.122;2023-04-25T03:18:12;21.93;;;13.53;;
9508;SDS011;4792;50.088;8.122;2023-04-25T03:20:39;22.00;;;13.00;;
9508;SDS011;4792;50.088;8.122;2023-04-25T03:23:09;22.17;;;13.03;;
9508;SDS011;4792;50.088;8.122;2023-04-25T03:25:37;16.10;;;12.73;;
9508;SDS011;4792;50.088;8.122;2023-04-25T03:28:05;21.80;;;13.50;;
9508;SDS011;4792;50.088;8.122;2023-04-25T03:30:32;18.10;;;12.73;;
9508;SDS011;4792;50.088;8.122;2023-04-25T03:33:00;20.17;;;13.97;;
9508;SDS011;4792;50.088;8.122;2023-04-25T03:35:28;23.57;;;14.53;;
9508;SDS011;4792;50.088;8.122;2023-04-25T03:37:56;21.37;;;13.27;;
9508;SDS011;4792;50.088;8.122;2023-04-25T03:40:25;18.50;;;13.27;;
9508;SDS011;4792;50.088;8.122;2023-04-25T03:42:53;21.87;;;13.53;;
9508;SDS011;4792;50.088;8.122;2023-04-25T03:45:21;20.67;;;13.90;;
9508;SDS011;4792;50.088;8.122;2023-04-25T03:47:49;21.03;;;14.47;;
9508;SDS011;4792;50.088;8.122;2023-04-25T03:50:17;17.43;;;12.53;;
9508;SDS011;4792;50.088;8.122;2023-04-25T03:52:45;22.23;;;14.50;;
9508;SDS011;4792;50.088;8.122;2023-04-25T03:55:12;20.07;;;13.40;;
9508;SDS011;4792;50.088;8.122;2023-04-25T03:57:42;18.00;;;12.53;;
9508;SDS011;4792;50.088;8.122;2023-04-25T04:00:10;22.77;;;13.67;;
9508;SDS011;4792;50.088;8.122;2023-04-25T04:02:38;25.23;;;13.40;;
9508;SDS011;4792;50.088;8.122;2023-04-25T04:05:10;17.17;;;11.83;;
9508;SDS011;4792;50.088;8.122;2023-04-25T04:07:39;22.63;;;12.23;;
9508;SDS011;4792;50.088;8.122;2023-04-25T04:10:09;21.50;;;11.97;;
9508;SDS011;4792;50.088;8.122;2023-04-25T04:12:37;20.07;;;11.97;;
9508;SDS011;4792;50.088;8.122;2023-04-25T04:15:06;22.80;;;11.90;;
9508;SDS011;4792;50.088;8.122;2023-04-25T04:17:35;21.07;;;11.17;;
9508;SDS011;4792;50.088;8.122;2023-04-25T04:20:03;20.43;;;11.17;;
9508;SDS011;4792;50.088;8.122;2023-04-25T04:22:32;17.77;;;9.50;;
9508;SDS011;4792;50.088;8.122;2023-04-25T04:25:00;21.37;;;11.13;;
9508;SDS011;4792;50.088;8.122;2023-04-25T04:27:28;19.40;;;9.83;;
9508;SDS011;4792;50.088;8.122;2023-04-25T04:29:56;15.87;;;8.70;;
9508;SDS011;4792;50.088;8.122;2023-04-25T04:32:25;15.93;;;8.50;;
9508;SDS011;4792;50.088;8.122;2023-04-25T04:34:53;16.40;;;8.17;;
9508;SDS011;4792;50.088;8.122;2023-04-25T04:37:22;17.20;;;8.70;;
9508;SDS011;4792;50.088;8.122;2023-04-25T04:39:50;17.17;;;8.37;;
9508;SDS011;4792;50.088;8.122;2023-04-25T04:42:18;15.73;;;8.50;;
9508;SDS011;4792;50.088;8.122;2023-04-25T04:44:47;18.37;;;8.83;;
9508;SDS011;4792;50.088;8.122;2023-04-25T04:47:15;13.60;;;8.30;;
9508;SDS011;4792;50.088;8.122;2023-04-25T04:49:44;18.43;;;8.93;;
9508;SDS011;4792;50.088;8.122;2023-04-25T04:52:12;18.83;;;9.37;;
9508;SDS011;4792;50.088;8.122;2023-04-25T04:54:39;21.07;;;10.03;;
9508;SDS011;4792;50.088;8.122;2023-04-25T04:57:07;16.37;;;8.67;;
9508;SDS011;4792;50.088;8.122;2023-04-25T04:59:35;18.93;;;8.33;;
9508;SDS011;4792;50.088;8.122;2023-04-25T05:02:03;17.13;;;7.93;;
9508;SDS011;4792;50.088;8.122;2023-04-25T05:04:31;16.70;;;8.53;;
9508;SDS011;4792;50.088;8.122;2023-04-25T05:07:00;16.53;;;7.60;;
9508;SDS011;4792;50.088;8.122;2023-04-25T05:09:28;15.90;;;8.70;;
9508;SDS011;4792;50.088;8.122;2023-04-25T05:11:56;18.17;;;8.30;;
9508;SDS011;4792;50.088;8.122;2023-04-25T05:14:24;21.10;;;8.50;;
9508;SDS011;4792;50.088;8.122;2023-04-25T05:16:51;15.20;;;8.17;;
9508;SDS011;4792;50.088;8.122;2023-04-25T05:19:20;16.00;;;9.57;;
9508;SDS011;4792;50.088;8.122;2023-04-25T05:21:47;19.50;;;9.07;;
9508;SDS011;4792;50.088;8.122;2023-04-25T05:24:16;17.13;;;8.90;;
9508;SDS011;4792;50.088;8.122;2023-04-25T05:26:44;17.53;;;8.90;;
9508;SDS011;4792;50.088;8.122;2023-04-25T05:29:12;17.87;;;8.63;;
9508;SDS011;4792;50.088;8.122;2023-04-25T05:31:40;17.43;;;9.20;;
9508;SDS011;4792;50.088;8.122;2023-04-25T05:34:08;19.37;;;9.00;;
9508;SDS011;4792;50.088;8.122;2023-04-25T05:36:36;17.43;;;8.60;;
9508;SDS011;4792;50.088;8.122;2023-04-25T05:39:03;14.10;;;7.50;;
9508;SDS011;4792;50.088;8.122;2023-04-25T05:41:34;13.83;;;8.33;;
9508;SDS011;4792;50.088;8.122;2023-04-25T05:44:01;17.80;;;7.83;;
9508;SDS011;4792;50.088;8.122;2023-04-25T05:46:29;15.97;;;7.83;;
9508;SDS011;4792;50.088;8.122;2023-04-25T05:48:57;16.10;;;8.27;;
9508;SDS011;4792;50.088;8.122;2023-04-25T05:51:25;13.20;;;7.67;;
9508;SDS011;4792;50.088;8.122;2023-04-25T05:53:53;15.80;;;8.73;;
9508;SDS011;4792;50.088;8.122;2023-04-25T05:56:22;22.43;;;10.77;;
9508;SDS011;4792;50.088;8.122;2023-04-25T05:58:51;14.20;;;6.90;;
9508;SDS011;4792;50.088;8.122;2023-04-25T06:01:19;16.17;;;7.73;;
9508;SDS011;4792;50.088;8.122;2023-04-25T06:03:47;17.37;;;7.83;;
9508;SDS011;4792;50.088;8.122;2023-04-25T06:06:15;19.67;;;7.83;;
9508;SDS011;4792;50.088;8.122;2023-04-25T06:08:43;13.50;;;7.10;;
9508;SDS011;4792;50.088;8.122;2023-04-25T06:11:11;15.13;;;6.87;;
9508;SDS011;4792;50.088;8.122;2023-04-25T06:13:39;20.93;;;8.70;;
9508;SDS011;4792;50.088;8.122;2023-04-25T06:16:08;16.17;;;8.23;;
9508;SDS011;4792;50.088;8.122;2023-04-25T06:18:36;22.43;;;7.50;;
9508;SDS011;4792;50.088;8.122;2023-04-25T06:21:04;15.87;;;7.20;;
9508;SDS011;4792;50.088;8.122;2023-04-25T06:23:31;12.17;;;6.83;;
9508;SDS011;4792;50.088;8.122;2023-04-25T06:25:59;20.03;;;7.63;;
9508;SDS011;4792;50.088;8.122;2023-04-25T06:28:27;16.30;;;7.97;;
9508;SDS011;4792;50.088;8.122;2023-04-25T06:30:55;12.47;;;7.90;;
9508;SDS011;4792;50.088;8.122;2023-04-25T06:33:24;25.27;;;8.53;;
9508;SDS011;4792;50.088;8.122;2023-04-25T06:35:52;16.13;;;7.30;;
9508;SDS011;4792;50.088;8.122;2023-04-25T06:38:20;11.97;;;6.97;;
9508;SDS011;4792;50.088;8.122;2023-04-25T06:40:48;12.77;;;6.63;;
9508;SDS011;4792;50.088;8.122;2023-04-25T06:43:16;14.00;;;6.57;;
9508;SDS011;4792;50.088;8.122;2023-04-25T06:45:44;16.03;;;6.57;;
9508;SDS011;4792;50.088;8.122;2023-04-25T06:48:13;15.23;;;6.80;;
9508;SDS011;4792;50.088;8.122;2023-04-25T06:50:43;9.57;;;5.80;;
9508;SDS011;4792;50.088;8.122;2023-04-25T06:53:11;11.57;;;5.63;;
9508;SDS011;4792;50.088;8.122;2023-04-25T06:55:38;14.30;;;5.50;;
9508;SDS011;4792;50.088;8.122;2023-04-25T06:58:06;12.37;;;5.27;;
9508;SDS011;4792;50.088;8.122;2023-04-25T07:00:34;8.60;;;4.93;;
9508;SDS011;4792;50.088;8.122;2023-04-25T07:03:02;13.50;;;5.30;;
9508;SDS011;4792;50.088;8.122;2023-04-25T07:05:31;9.47;;;4.80;;
9508;SDS011;4792;50.088;8.122;2023-04-25T07:08:00;12.80;;;5.43;;
9508;SDS011;4792;50.088;8.122;2023-04-25T07:10:28;8.43;;;4.93;;
9508;SDS011;4792;50.088;8.122;2023-04-25T07:12:56;12.60;;;4.93;;
9508;SDS011;4792;50.088;8.122;2023-04-25T07:15:24;10.17;;;4.40;;
9508;SDS011;4792;50.088;8.122;2023-04-25T07:17:52;8.03;;;4.40;;
9508;SDS011;4792;50.088;8.122;2023-04-25T07:20:20;12.60;;;4.10;;
9508;SDS011;4792;50.088;8.122;2023-04-25T07:22:48;8.47;;;3.77;;
9508;SDS011;4792;50.088;8.122;2023-04-25T07:25:17;9.37;;;4.07;;
9508;SDS011;4792;50.088;8.122;2023-04-25T07:27:45;7.90;;;3.83;;
9508;SDS011;4792;50.088;8.122;2023-04-25T07:30:13;11.53;;;3.90;;
9508;SDS011;4792;50.088;8.122;2023-04-25T07:32:41;6.00;;;3.70;;
9508;SDS011;4792;50.088;8.122;2023-04-25T07:35:09;8.77;;;3.60;;
9508;SDS011;4792;50.088;8.122;2023-04-25T07:37:37;9.93;;;3.57;;
9508;SDS011;4792;50.088;8.122;2023-04-25T07:40:05;6.17;;;3.33;;
9508;SDS011;4792;50.088;8.122;2023-04-25T07:42:35;7.30;;;3.90;;
9508;SDS011;4792;50.088;8.122;2023-04-25T07:45:03;6.47;;;3.10;;
9508;SDS011;4792;50.088;8.122;2023-04-25T07:47:31;8.03;;;3.20;;
9508;SDS011;4792;50.088;8.122;2023-04-25T07:49:59;7.93;;;3.40;;
9508;SDS011;4792;50.088;8.122;2023-04-25T07:52:27;4.77;;;3.10;;
9508;SDS011;4792;50.088;8.122;2023-04-25T07:54:55;11.73;;;4.00;;
9508;SDS011;4792;50.088;8.122;2023-04-25T07:57:24;4.80;;;2.80;;
9508;SDS011;4792;50.088;8.122;2023-04-25T07:59:53;5.77;;;3.20;;
9508;SDS011;4792;50.088;8.122;2023-04-25T08:02:21;7.00;;;2.90;;
9508;SDS011;4792;50.088;8.122;2023-04-25T08:04:48;6.50;;;3.10;;
9508;SDS011;4792;50.088;8.122;2023-04-25T08:07:17;10.67;;;3.27;;
9508;SDS011;4792;50.088;8.122;2023-04-25T08:09:44;5.83;;;3.13;;
9508;SDS011;4792;50.088;8.122;2023-04-25T08:12:12;6.20;;;3.03;;
9508;SDS011;4792;50.088;8.122;2023-04-25T08:14:40;4.63;;;2.70;;
9508;SDS011;4792;50.088;8.122;2023-04-25T08:17:09;8.07;;;3.00;;
9508;SDS011;4792;50.088;8.122;2023-04-25T08:19:37;5.80;;;3.17;;
9508;SDS011;4792;50.088;8.122;2023-04-25T08:22:05;8.27;;;2.90;;
9508;SDS011;4792;50.088;8.122;2023-04-25T08:24:33;32.37;;;19.70;;
9508;SDS011;4792;50.088;8.122;2023-04-25T08:27:04;6.40;;;3.00;;
9508;SDS011;4792;50.088;8.122;2023-04-25T08:29:32;10.03;;;3.40;;
9508;SDS011;4792;50.088;8.122;2023-04-25T08:32:01;8.13;;;3.87;;
9508;SDS011;4792;50.088;8.122;2023-04-25T08:34:30;5.70;;;3.70;;
9508;SDS011;4792;50.088;8.122;2023-04-25T08:36:58;8.17;;;3.77;;
9508;SDS011;4792;50.088;8.122;2023-04-25T08:39:26;7.03;;;3.93;;
9508;SDS011;4792;50.088;8.122;2023-04-25T08:41:53;10.40;;;3.70;;
9508;SDS011;4792;50.088;8.122;2023-04-25T08:44:21;8.10;;;3.97;;
9508;SDS011;4792;50.088;8.122;2023-04-25T08:46:49;12.13;;;4.33;;
9508;SDS011;4792;50.088;8.122;2023-04-25T08:49:18;6.83;;;4.37;;
9508;SDS011;4792;50.088;8.122;2023-04-25T08:51:47;7.83;;;3.90;;
9508;SDS011;4792;50.088;8.122;2023-04-25T08:54:17;7.03;;;4.30;;
9508;SDS011;4792;50.088;8.122;2023-04-25T08:56:56;9.10;;;4.67;;
9508;SDS011;4792;50.088;8.122;2023-04-25T08:59:25;9.43;;;4.70;;
9508;SDS011;4792;50.088;8.122;2023-04-25T09:01:53;8.03;;;4.10;;
9508;SDS011;4792;50.088;8.122;2023-04-25T09:04:22;9.40;;;4.67;;
9508;SDS011;4792;50.088;8.122;2023-04-25T09:06:51;6.47;;;3.77;;
9508;SDS011;4792;50.088;8.122;2023-04-25T09:09:19;8.63;;;4.20;;
9508;SDS011;4792;50.088;8.122;2023-04-25T09:11:47;8.30;;;4.20;;
9508;SDS011;4792;50.088;8.122;2023-04-25T09:14:16;10.63;;;4.10;;
9508;SDS011;4792;50.088;8.122;2023-04-25T09:16:59;9.73;;;5.00;;
9508;SDS011;4792;50.088;8.122;2023-04-25T09:19:29;7.67;;;4.90;;
9508;SDS011;4792;50.088;8.122;2023-04-25T09:22:04;8.33;;;4.67;;
9508;SDS011;4792;50.088;8.122;2023-04-25T09:24:35;7.83;;;4.90;;
9508;SDS011;4792;50.088;8.122;2023-04-25T09:27:05;8.20;;;4.70;;
9508;SDS011;4792;50.088;8.122;2023-04-25T09:29:34;10.03;;;5.23;;
9508;SDS011;4792;50.088;8.122;2023-04-25T09:34:51;9.80;;;5.00;;
9508;SDS011;4792;50.088;8.122;2023-04-25T09:37:21;11.77;;;5.60;;
9508;SDS011;4792;50.088;8.122;2023-04-25T09:39:51;6.43;;;5.10;;
9508;SDS011;4792;50.088;8.122;2023-04-25T09:42:21;13.43;;;5.73;;
9508;SDS011;4792;50.088;8.122;2023-04-25T09:44:51;8.93;;;4.77;;
9508;SDS011;4792;50.088;8.122;2023-04-25T09:47:20;10.30;;;5.17;;
9508;SDS011;4792;50.088;8.122;2023-04-25T09:49:51;11.47;;;5.23;;
9508;SDS011;4792;50.088;8.122;2023-04-25T09:52:21;8.60;;;4.57;;
9508;SDS011;4792;50.088;8.122;2023-04-25T09:54:51;7.50;;;4.90;;
9508;SDS011;4792;50.088;8.122;2023-04-25T09:57:20;10.70;;;4.70;;
9508;SDS011;4792;50.088;8.122;2023-04-25T09:59:49;8.70;;;4.70;;
9508;SDS011;4792;50.088;8.122;2023-04-25T10:02:18;7.17;;;4.70;;
9508;SDS011;4792;50.088;8.122;2023-04-25T10:04:48;11.17;;;5.60;;
9508;SDS011;4792;50.088;8.122;2023-04-25T10:07:19;10.73;;;5.70;;
9508;SDS011;4792;50.088;8.122;2023-04-25T10:09:49;10.67;;;4.90;;
9508;SDS011;4792;50.088;8.122;2023-04-25T10:12:22;12.27;;;5.70;;
9508;SDS011;4792;50.088;8.122;2023-04-25T10:14:50;10.00;;;4.90;;
9508;SDS011;4792;50.088;8.122;2023-04-25T10:17:20;10.60;;;5.17;;
9508;SDS011;4792;50.088;8.122;2023-04-25T10:19:48;10.07;;;4.53;;
9508;SDS011;4792;50.088;8.122;2023-04-25T10:22:17;12.60;;;4.80;;
9508;SDS011;4792;50.088;8.122;2023-04-25T10:24:49;7.60;;;4.87;;
9508;SDS011;4792;50.088;8.122;2023-04-25T10:27:17;10.80;;;4.63;;
9508;SDS011;4792;50.088;8.122;2023-04-25T10:29:45;8.13;;;4.80;;
9508;SDS011;4792;50.088;8.122;2023-04-25T10:32:28;11.93;;;4.70;;
9508;SDS011;4792;50.088;8.122;2023-04-25T10:35:04;10.53;;;4.80;;
9508;SDS011;4792;50.088;8.122;2023-04-25T10:37:38;11.63;;;5.63;;
9508;SDS011;4792;50.088;8.122;2023-04-25T10:40:09;16.57;;;6.43;;
9508;SDS011;4792;50.088;8.122;2023-04-25T10:42:38;10.53;;;5.20;;
9508;SDS011;4792;50.088;8.122;2023-04-25T10:45:08;8.67;;;4.63;;
9508;SDS011;4792;50.088;8.122;2023-04-25T10:47:42;8.23;;;4.27;;
9508;SDS011;4792;50.088;8.122;2023-04-25T10:50:13;9.13;;;4.63;;
9508;SDS011;4792;50.088;8.122;2023-04-25T10:52:42;11.13;;;4.67;;
9508;SDS011;4792;50.088;8.122;2023-04-25T10:55:12;8.93;;;3.93;;
9508;SDS011;4792;50.088;8.122;2023-04-25T10:57:41;9.67;;;4.63;;
9508;SDS011;4792;50.088;8.122;2023-04-25T11:00:11;14.17;;;4.50;;
9508;SDS011;4792;50.088;8.122;2023-04-25T11:02:42;11.37;;;3.93;;
9508;SDS011;4792;50.088;8.122;2023-04-25T11:05:19;10.63;;;4.07;;
9508;SDS011;4792;50.088;8.122;2023-04-25T11:07:50;17.03;;;4.47;;
9508;SDS011;4792;50.088;8.122;2023-04-25T11:10:33;10.20;;;4.80;;
9508;SDS011;4792;50.088;8.122;2023-04-25T11:13:02;9.17;;;4.10;;
9508;SDS011;4792;50.088;8.122;2023-04-25T11:15:31;11.00;;;5.07;;
9508;SDS011;4792;50.088;8.122;2023-04-25T11:17:59;14.57;;;4.90;;
9508;SDS011;4792;50.088;8.122;2023-04-25T11:20:27;10.57;;;4.17;;
9508;SDS011;4792;50.088;8.122;2023-04-25T11:22:57;12.57;;;4.60;;
9508;SDS011;4792;50.088;8.122;2023-04-25T11:25:26;13.17;;;4.43;;
9508;SDS011;4792;50.088;8.122;2023-04-25T11:27:56;12.30;;;4.40;;
9508;SDS011;4792;50.088;8.122;2023-04-25T11:30:25;10.27;;;4.50;;
9508;SDS011;4792;50.088;8.122;2023-04-25T11:32:53;11.40;;;4.33;;
9508;SDS011;4792;50.088;8.122;2023-04-25T11:35:21;12.50;;;4.20;;
9508;SDS011;4792;50.088;8.122;2023-04-25T11:37:51;10.10;;;3.70;;
9508;SDS011;4792;50.088;8.122;2023-04-25T11:40:19;9.70;;;3.77;;
9508;SDS011;4792;50.088;8.122;2023-04-25T11:42:47;8.60;;;3.50;;
9508;SDS011;4792;50.088;8.122;2023-04-25T11:45:18;10.03;;;3.83;;
9508;SDS011;4792;50.088;8.122;2023-04-25T11:47:46;8.03;;;3.77;;
9508;SDS011;4792;50.088;8.122;2023-04-25T11:50:14;12.27;;;3.50;;
9508;SDS011;4792;50.088;8.122;2023-04-25T11:52:43;12.63;;;3.77;;
9508;SDS011;4792;50.088;8.122;2023-04-25T11:55:12;12.90;;;4.07;;
9508;SDS011;4792;50.088;8.122;2023-04-25T11:57:41;9.67;;;3.63;;
9508;SDS011;4792;50.088;8.122;2023-04-25T12:00:10;7.03;;;3.47;;
9508;SDS011;4792;50.088;8.122;2023-04-25T12:02:46;8.33;;;4.23;;
9508;SDS011;4792;50.088;8.122;2023-04-25T12:05:16;12.00;;;5.30;;
9508;SDS011;4792;50.088;8.122;2023-04-25T12:07:57;11.33;;;3.77;;
9508;SDS011;4792;50.088;8.122;2023-04-25T12:10:25;7.87;;;3.73;;
9508;SDS011;4792;50.088;8.122;2023-04-25T12:12:53;11.70;;;3.83;;
9508;SDS011;4792;50.088;8.122;2023-04-25T12:15:23;12.13;;;3.73;;
9508;SDS011;4792;50.088;8.122;2023-04-25T12:17:53;8.60;;;2.93;;
9508;SDS011;4792;50.088;8.122;2023-04-25T12:20:24;6.97;;;3.10;;
9508;SDS011;4792;50.088;8.122;2023-04-25T12:22:52;7.63;;;3.10;;
9508;SDS011;4792;50.088;8.122;2023-04-25T12:25:36;9.17;;;3.10;;
9508;SDS011;4792;50.088;8.122;2023-04-25T12:28:09;9.17;;;3.43;;
9508;SDS011;4792;50.088;8.122;2023-04-25T12:30:57;6.73;;;3.00;;
9508;SDS011;4792;50.088;8.122;2023-04-25T12:33:27;8.13;;;3.20;;
9508;SDS011;4792;50.088;8.122;2023-04-25T12:35:56;7.07;;;3.27;;
9508;SDS011;4792;50.088;8.122;2023-04-25T12:38:25;7.80;;;3.23;;
9508;SDS011;4792;50.088;8.122;2023-04-25T12:40:54;8.70;;;3.17;;
9508;SDS011;4792;50.088;8.122;2023-04-25T12:43:22;10.63;;;3.50;;
9508;SDS011;4792;50.088;8.122;2023-04-25T12:45:50;5.77;;;3.03;;
9508;SDS011;4792;50.088;8.122;2023-04-25T12:48:18;10.63;;;3.20;;
9508;SDS011;4792;50.088;8.122;2023-04-25T12:50:48;9.63;;;3.47;;
9508;SDS011;4792;50.088;8.122;2023-04-25T12:53:16;9.10;;;3.70;;
9508;SDS011;4792;50.088;8.122;2023-04-25T12:55:45;10.40;;;3.40;;
9508;SDS011;4792;50.088;8.122;2023-04-25T12:58:13;7.80;;;3.10;;
9508;SDS011;4792;50.088;8.122;2023-04-25T13:00:41;8.50;;;3.20;;
9508;SDS011;4792;50.088;8.122;2023-04-25T13:03:09;9.27;;;4.70;;
9508;SDS011;4792;50.088;8.122;2023-04-25T13:05:37;10.90;;;3.60;;
9508;SDS011;4792;50.088;8.122;2023-04-25T13:08:06;7.90;;;3.17;;
9508;SDS011;4792;50.088;8.122;2023-04-25T13:10:34;7.83;;;2.90;;
9508;SDS011;4792;50.088;8.122;2023-04-25T13:13:04;5.73;;;2.70;;
9508;SDS011;4792;50.088;8.122;2023-04-25T13:15:32;6.47;;;2.90;;
9508;SDS011;4792;50.088;8.122;2023-04-25T13:18:00;5.57;;;2.50;;
9508;SDS011;4792;50.088;8.122;2023-04-25T13:20:28;7.30;;;3.13;;
9508;SDS011;4792;50.088;8.122;2023-04-25T13:22:56;5.10;;;2.50;;
9508;SDS011;4792;50.088;8.122;2023-04-25T13:25:28;5.80;;;2.60;;
9508;SDS011;4792;50.088;8.122;2023-04-25T13:27:56;5.53;;;2.57;;
9508;SDS011;4792;50.088;8.122;2023-04-25T13:30:24;6.07;;;2.90;;
9508;SDS011;4792;50.088;8.122;2023-04-25T13:32:52;5.70;;;2.70;;
9508;SDS011;4792;50.088;8.122;2023-04-25T13:35:20;6.73;;;2.70;;
9508;SDS011;4792;50.088;8.122;2023-04-25T13:37:48;7.97;;;2.77;;
9508;SDS011;4792;50.088;8.122;2023-04-25T13:40:16;5.07;;;2.33;;
9508;SDS011;4792;50.088;8.122;2023-04-25T13:42:45;10.17;;;3.37;;
9508;SDS011;4792;50.088;8.122;2023-04-25T13:45:13;11.07;;;2.93;;
9508;SDS011;4792;50.088;8.122;2023-04-25T13:47:41;6.87;;;2.70;;
9508;SDS011;4792;50.088;8.122;2023-04-25T13:50:09;8.07;;;2.80;;
9508;SDS011;4792;50.088;8.122;2023-04-25T13:52:37;4.13;;;2.37;;
9508;SDS011;4792;50.088;8.122;2023-04-25T13:55:05;7.73;;;3.20;;
9508;SDS011;4792;50.088;8.122;2023-04-25T13:57:34;7.93;;;3.30;;
9508;SDS011;4792;50.088;8.122;2023-04-25T14:00:08;13.43;;;3.30;;
9508;SDS011;4792;50.088;8.122;2023-04-25T14:02:37;6.33;;;3.10;;
9508;SDS011;4792;50.088;8.122;2023-04-25T14:05:05;8.23;;;2.93;;
9508;SDS011;4792;50.088;8.122;2023-04-25T14:07:34;8.87;;;2.70;;
9508;SDS011;4792;50.088;8.122;2023-04-25T14:10:02;12.00;;;3.33;;
9508;SDS011;4792;50.088;8.122;2023-04-25T14:12:31;10.03;;;3.00;;
9508;SDS011;4792;50.088;8.122;2023-04-25T14:14:59;6.70;;;3.50;;
9508;SDS011;4792;50.088;8.122;2023-04-25T14:17:29;10.67;;;3.40;;
9508;SDS011;4792;50.088;8.122;2023-04-25T14:19:56;6.97;;;3.03;;
9508;SDS011;4792;50.088;8.122;2023-04-25T14:22:24;9.33;;;2.93;;
9508;SDS011;4792;50.088;8.122;2023-04-25T14:24:52;7.17;;;3.00;;
9508;SDS011;4792;50.088;8.122;2023-04-25T14:27:20;7.63;;;3.10;;
9508;SDS011;4792;50.088;8.122;2023-04-25T14:29:48;9.43;;;2.90;;
9508;SDS011;4792;50.088;8.122;2023-04-25T14:32:16;6.13;;;2.97;;
9508;SDS011;4792;50.088;8.122;2023-04-25T14:34:45;6.77;;;3.10;;
9508;SDS011;4792;50.088;8.122;2023-04-25T14:37:12;11.53;;;3.53;;
9508;SDS011;4792;50.088;8.122;2023-04-25T14:39:40;6.90;;;3.00;;
9508;SDS011;4792;50.088;8.122;2023-04-25T14:42:11;6.93;;;3.10;;
9508;SDS011;4792;50.088;8.122;2023-04-25T14:44:39;9.33;;;3.47;;
9508;SDS011;4792;50.088;8.122;2023-04-25T14:47:07;5.67;;;2.50;;
9508;SDS011;4792;50.088;8.122;2023-04-25T14:49:35;9.43;;;3.20;;
9508;SDS011;4792;50.088;8.122;2023-04-25T14:52:04;10.83;;;3.00;;
9508;SDS011;4792;50.088;8.122;2023-04-25T14:54:32;8.07;;;3.00;;
9508;SDS011;4792;50.088;8.122;2023-04-25T14:57:00;4.23;;;2.70;;
9508;SDS011;4792;50.088;8.122;2023-04-25T14:59:29;5.67;;;2.70;;
9508;SDS011;4792;50.088;8.122;2023-04-25T15:01:56;6.27;;;2.83;;
9508;SDS011;4792;50.088;8.122;2023-04-25T15:04:25;10.00;;;3.30;;
9508;SDS011;4792;50.088;8.122;2023-04-25T15:06:53;8.50;;;2.73;;
9508;SDS011;4792;50.088;8.122;2023-04-25T15:09:23;6.73;;;2.70;;
9508;SDS011;4792;50.088;8.122;2023-04-25T15:11:51;6.67;;;2.30;;
9508;SDS011;4792;50.088;8.122;2023-04-25T15:14:19;8.53;;;2.73;;
9508;SDS011;4792;50.088;8.122;2023-04-25T15:16:47;6.37;;;2.40;;